CRL69 LFBO-LFML
Flight info
| Callsign | CRL69 |
|---|---|
| Flight time | 0h 46m |
| Altitude | 29000 |
| Route | AMOLO DCT DEGOL DCT FJR |
| Aircraft | A339/H-SADE1E2E3GHIJ3J5M1P2RWXY/LB2D1 |
Departure
| Time | 2026-05-04 19:51 |
|---|---|
| Airport | Toulouse-Blagnac Airport (LFBO) |
Arrival
| Time | 2026-05-04 20:38 |
|---|---|
| Airport | Marseille Provence Airport (LFML) |
| Time | Latitude | Longitude | Altitude | Speed | Heading |
|---|---|---|---|---|---|
| 2026-05-04 18:57 | 43.61449 | 1.36368 | 523 ft | 0 kts | 272° |
| 2026-05-04 19:36 | 43.61449 | 1.36380 | 524 ft | 2 kts | 273° |
| 2026-05-04 19:36 | 43.61448 | 1.36401 | 524 ft | 2 kts | 272° |
| 2026-05-04 19:36 | 43.61447 | 1.36422 | 524 ft | 2 kts | 272° |
| 2026-05-04 19:37 | 43.61447 | 1.36442 | 524 ft | 2 kts | 272° |
| 2026-05-04 19:37 | 43.61446 | 1.36463 | 524 ft | 2 kts | 272° |
| 2026-05-04 19:37 | 43.61446 | 1.36483 | 524 ft | 2 kts | 275° |
| 2026-05-04 19:37 | 43.61443 | 1.36504 | 524 ft | 2 kts | 292° |
| 2026-05-04 19:38 | 43.61436 | 1.36521 | 524 ft | 2 kts | 306° |
| 2026-05-04 19:38 | 43.61426 | 1.36537 | 523 ft | 2 kts | 320° |
| 2026-05-04 19:38 | 43.61414 | 1.36548 | 523 ft | 2 kts | 334° |
| 2026-05-04 19:38 | 43.61400 | 1.36556 | 524 ft | 2 kts | 348° |
| 2026-05-04 19:39 | 43.61385 | 1.36558 | 524 ft | 2 kts | 1° |
| 2026-05-04 19:39 | 43.61371 | 1.36556 | 524 ft | 1 kts | 15° |
| 2026-05-04 19:39 | 43.61365 | 1.36554 | 524 ft | 0 kts | 17° |
| 2026-05-04 19:43 | 43.61379 | 1.36559 | 524 ft | 4 kts | 17° |
| 2026-05-04 19:43 | 43.61427 | 1.36580 | 522 ft | 9 kts | 17° |
| 2026-05-04 19:43 | 43.61504 | 1.36612 | 520 ft | 13 kts | 16° |
| 2026-05-04 19:43 | 43.61578 | 1.36644 | 518 ft | 0 kts | 16° |
| 2026-05-04 19:44 | 43.61596 | 1.36654 | 518 ft | 5 kts | 31° |
| 2026-05-04 19:44 | 43.61636 | 1.36708 | 516 ft | 10 kts | 48° |
| 2026-05-04 19:44 | 43.61691 | 1.36808 | 513 ft | 15 kts | 51° |
| 2026-05-04 19:44 | 43.61755 | 1.36917 | 513 ft | 13 kts | 54° |
| 2026-05-04 19:45 | 43.61801 | 1.37007 | 510 ft | 0 kts | 54° |
| 2026-05-04 19:45 | 43.61805 | 1.37015 | 510 ft | 3 kts | 54° |
| 2026-05-04 19:46 | 43.61831 | 1.37064 | 510 ft | 8 kts | 53° |
| 2026-05-04 19:46 | 43.61869 | 1.37132 | 509 ft | 10 kts | 52° |
| 2026-05-04 19:46 | 43.61922 | 1.37166 | 508 ft | 8 kts | 345° |
| 2026-05-04 19:46 | 43.61955 | 1.37146 | 508 ft | 0 kts | 323° |
| 2026-05-04 19:50 | 43.61956 | 1.37146 | 508 ft | 0 kts | 323° |
| 2026-05-04 19:50 | 43.62049 | 1.37050 | 508 ft | 50 kts | 322° |
| 2026-05-04 19:50 | 43.62528 | 1.36548 | 503 ft | 118 kts | 322° |
| 2026-05-04 19:50 | 43.63329 | 1.35720 | 558 ft | 166 kts | 322° |
| 2026-05-04 19:51 | 43.64345 | 1.34754 | 896 ft | 188 kts | 324° |
| 2026-05-04 19:51 | 43.65447 | 1.33720 | 1621 ft | 197 kts | 323° |
| 2026-05-04 19:51 | 43.66559 | 1.32636 | 2462 ft | 199 kts | 323° |
| 2026-05-04 19:51 | 43.67669 | 1.31532 | 3280 ft | 197 kts | 322° |
| 2026-05-04 19:52 | 43.68795 | 1.30477 | 4055 ft | 198 kts | 338° |
| 2026-05-04 19:52 | 43.70134 | 1.30471 | 4792 ft | 204 kts | 22° |
| 2026-05-04 19:52 | 43.71157 | 1.31783 | 5545 ft | 208 kts | 63° |
| 2026-05-04 19:52 | 43.71728 | 1.33603 | 6167 ft | 213 kts | 59° |
| 2026-05-04 19:53 | 43.72520 | 1.35371 | 6717 ft | 222 kts | 55° |
| 2026-05-04 19:53 | 43.73387 | 1.37190 | 7260 ft | 233 kts | 55° |
| 2026-05-04 19:53 | 43.74280 | 1.39113 | 7816 ft | 243 kts | 54° |
| 2026-05-04 19:53 | 43.75260 | 1.41069 | 8302 ft | 258 kts | 54° |
| 2026-05-04 19:54 | 43.76300 | 1.43189 | 8733 ft | 277 kts | 55° |
| 2026-05-04 19:54 | 43.77411 | 1.45475 | 9244 ft | 292 kts | 56° |
| 2026-05-04 19:54 | 43.78538 | 1.47804 | 10008 ft | 298 kts | 56° |
| 2026-05-04 19:54 | 43.79707 | 1.50221 | 10662 ft | 308 kts | 56° |
| 2026-05-04 19:55 | 43.80915 | 1.52769 | 11091 ft | 326 kts | 59° |
| 2026-05-04 19:55 | 43.81991 | 1.55609 | 11483 ft | 344 kts | 66° |
| 2026-05-04 19:55 | 43.82849 | 1.58789 | 11850 ft | 362 kts | 73° |
| 2026-05-04 19:55 | 43.83605 | 1.62209 | 12333 ft | 377 kts | 74° |
| 2026-05-04 19:56 | 43.84345 | 1.65678 | 13080 ft | 382 kts | 75° |
| 2026-05-04 19:56 | 43.85100 | 1.69224 | 13893 ft | 385 kts | 75° |
| 2026-05-04 19:56 | 43.85743 | 1.72823 | 14669 ft | 386 kts | 86° |
| 2026-05-04 19:56 | 43.85577 | 1.76463 | 15438 ft | 386 kts | 101° |
| 2026-05-04 19:57 | 43.85076 | 1.80131 | 16228 ft | 388 kts | 104° |
| 2026-05-04 19:57 | 43.84552 | 1.83790 | 16967 ft | 393 kts | 103° |
| 2026-05-04 19:57 | 43.84049 | 1.87486 | 17691 ft | 397 kts | 103° |
| 2026-05-04 19:57 | 43.83564 | 1.91262 | 18429 ft | 401 kts | 102° |
| 2026-05-04 19:58 | 43.83094 | 1.95057 | 19142 ft | 406 kts | 102° |
| 2026-05-04 19:58 | 43.82628 | 1.98922 | 19853 ft | 410 kts | 102° |
| 2026-05-04 19:58 | 43.82162 | 2.02835 | 20523 ft | 414 kts | 102° |
| 2026-05-04 19:58 | 43.81695 | 2.06796 | 21190 ft | 418 kts | 102° |
| 2026-05-04 19:59 | 43.81228 | 2.10770 | 21818 ft | 422 kts | 102° |
| 2026-05-04 19:59 | 43.80760 | 2.14772 | 22420 ft | 427 kts | 102° |
| 2026-05-04 19:59 | 43.80285 | 2.18804 | 23002 ft | 431 kts | 103° |
| 2026-05-04 19:59 | 43.79808 | 2.22875 | 23579 ft | 434 kts | 103° |
| 2026-05-04 20:00 | 43.79319 | 2.27003 | 24142 ft | 438 kts | 103° |
| 2026-05-04 20:00 | 43.78825 | 2.31171 | 24701 ft | 442 kts | 103° |
| 2026-05-04 20:00 | 43.78324 | 2.35379 | 25249 ft | 445 kts | 103° |
| 2026-05-04 20:00 | 43.77818 | 2.39616 | 25748 ft | 449 kts | 103° |
| 2026-05-04 20:01 | 43.77311 | 2.43851 | 26269 ft | 452 kts | 102° |
| 2026-05-04 20:01 | 43.76797 | 2.48159 | 26757 ft | 455 kts | 103° |
| 2026-05-04 20:01 | 43.76275 | 2.52500 | 27226 ft | 459 kts | 103° |
| 2026-05-04 20:01 | 43.75752 | 2.56842 | 27717 ft | 461 kts | 103° |
| 2026-05-04 20:02 | 43.75229 | 2.61155 | 28155 ft | 464 kts | 103° |
| 2026-05-04 20:02 | 43.74687 | 2.65613 | 28586 ft | 467 kts | 103° |
| 2026-05-04 20:02 | 43.74146 | 2.70048 | 28896 ft | 470 kts | 103° |
| 2026-05-04 20:03 | 43.73060 | 2.78929 | 28909 ft | 471 kts | 104° |
| 2026-05-04 20:03 | 43.71967 | 2.87814 | 28906 ft | 470 kts | 104° |
| 2026-05-04 20:04 | 43.70862 | 2.96706 | 28600 ft | 471 kts | 104° |
| 2026-05-04 20:04 | 43.70309 | 3.01135 | 28099 ft | 467 kts | 104° |
| 2026-05-04 20:04 | 43.69767 | 3.05483 | 27674 ft | 461 kts | 104° |
| 2026-05-04 20:04 | 43.69224 | 3.09816 | 27265 ft | 459 kts | 104° |
| 2026-05-04 20:05 | 43.68682 | 3.14124 | 26841 ft | 455 kts | 104° |
| 2026-05-04 20:05 | 43.68142 | 3.18402 | 26412 ft | 452 kts | 104° |
| 2026-05-04 20:05 | 43.67604 | 3.22651 | 25971 ft | 449 kts | 104° |
| 2026-05-04 20:05 | 43.67060 | 3.26935 | 25524 ft | 445 kts | 104° |
| 2026-05-04 20:06 | 43.66527 | 3.31125 | 25089 ft | 442 kts | 104° |
| 2026-05-04 20:06 | 43.65992 | 3.35314 | 24659 ft | 438 kts | 104° |
| 2026-05-04 20:06 | 43.65465 | 3.39410 | 24221 ft | 435 kts | 104° |
| 2026-05-04 20:06 | 43.64943 | 3.43474 | 23788 ft | 431 kts | 104° |
| 2026-05-04 20:07 | 43.64417 | 3.47534 | 23380 ft | 428 kts | 104° |
| 2026-05-04 20:07 | 43.63898 | 3.51553 | 22865 ft | 416 kts | 104° |
| 2026-05-04 20:07 | 43.63406 | 3.55378 | 22475 ft | 401 kts | 104° |
| 2026-05-04 20:07 | 43.62927 | 3.59078 | 22089 ft | 388 kts | 104° |
| 2026-05-04 20:08 | 43.62458 | 3.62693 | 21936 ft | 369 kts | 105° |
| 2026-05-04 20:08 | 43.62022 | 3.66060 | 21950 ft | 352 kts | 106° |
| 2026-05-04 20:08 | 43.61582 | 3.69390 | 21952 ft | 351 kts | 106° |
| 2026-05-04 20:08 | 43.61122 | 3.72805 | 21955 ft | 373 kts | 106° |
| 2026-05-04 20:09 | 43.60639 | 3.76396 | 21959 ft | 386 kts | 105° |
| 2026-05-04 20:09 | 43.60162 | 3.80017 | 21853 ft | 385 kts | 105° |
| 2026-05-04 20:09 | 43.59688 | 3.83631 | 21450 ft | 384 kts | 105° |
| 2026-05-04 20:09 | 43.59209 | 3.87250 | 20962 ft | 383 kts | 105° |
| 2026-05-04 20:10 | 43.58728 | 3.90865 | 20497 ft | 382 kts | 105° |
| 2026-05-04 20:10 | 43.58211 | 3.94415 | 20070 ft | 378 kts | 109° |
| 2026-05-04 20:10 | 43.57439 | 3.97867 | 19635 ft | 373 kts | 115° |
| 2026-05-04 20:10 | 43.56422 | 4.01121 | 19218 ft | 367 kts | 121° |
| 2026-05-04 20:11 | 43.55260 | 4.04209 | 18801 ft | 364 kts | 123° |
| 2026-05-04 20:11 | 43.54060 | 4.07301 | 18365 ft | 362 kts | 123° |
| 2026-05-04 20:11 | 43.52888 | 4.10306 | 17953 ft | 360 kts | 122° |
| 2026-05-04 20:11 | 43.51711 | 4.13333 | 17540 ft | 359 kts | 122° |
| 2026-05-04 20:12 | 43.50537 | 4.16358 | 17137 ft | 356 kts | 122° |
| 2026-05-04 20:12 | 43.49362 | 4.19359 | 16705 ft | 355 kts | 124° |
| 2026-05-04 20:12 | 43.48180 | 4.22312 | 16254 ft | 354 kts | 124° |
| 2026-05-04 20:12 | 43.47000 | 4.25241 | 15953 ft | 349 kts | 123° |
| 2026-05-04 20:13 | 43.45825 | 4.28155 | 15941 ft | 350 kts | 123° |
| 2026-05-04 20:13 | 43.44639 | 4.31084 | 15890 ft | 349 kts | 122° |
| 2026-05-04 20:13 | 43.43472 | 4.33967 | 15693 ft | 345 kts | 123° |
| 2026-05-04 20:13 | 43.42295 | 4.36860 | 15197 ft | 347 kts | 123° |
| 2026-05-04 20:14 | 43.41118 | 4.39743 | 14754 ft | 346 kts | 123° |
| 2026-05-04 20:14 | 43.39948 | 4.42623 | 14379 ft | 344 kts | 123° |
| 2026-05-04 20:14 | 43.38782 | 4.45462 | 14003 ft | 342 kts | 123° |
| 2026-05-04 20:14 | 43.37628 | 4.48266 | 13621 ft | 340 kts | 123° |
| 2026-05-04 20:15 | 43.36459 | 4.51103 | 13221 ft | 338 kts | 122° |
| 2026-05-04 20:15 | 43.35317 | 4.53866 | 12854 ft | 336 kts | 123° |
| 2026-05-04 20:15 | 43.34162 | 4.56664 | 12486 ft | 334 kts | 123° |
| 2026-05-04 20:15 | 43.33028 | 4.59404 | 12113 ft | 332 kts | 123° |
| 2026-05-04 20:16 | 43.31883 | 4.62165 | 11743 ft | 330 kts | 123° |
| 2026-05-04 20:16 | 43.30760 | 4.64867 | 11399 ft | 327 kts | 123° |
| 2026-05-04 20:16 | 43.29615 | 4.67614 | 11049 ft | 324 kts | 123° |
| 2026-05-04 20:16 | 43.28507 | 4.70258 | 10944 ft | 322 kts | 124° |
| 2026-05-04 20:17 | 43.27393 | 4.72919 | 10942 ft | 324 kts | 124° |
| 2026-05-04 20:17 | 43.26273 | 4.75613 | 10945 ft | 324 kts | 124° |
| 2026-05-04 20:17 | 43.25155 | 4.78292 | 10937 ft | 322 kts | 124° |
| 2026-05-04 20:17 | 43.24050 | 4.80934 | 10706 ft | 319 kts | 123° |
| 2026-05-04 20:18 | 43.23184 | 4.83738 | 10246 ft | 326 kts | 104° |
| 2026-05-04 20:18 | 43.23175 | 4.86824 | 9876 ft | 333 kts | 81° |
| 2026-05-04 20:18 | 43.24046 | 4.89711 | 9425 ft | 327 kts | 58° |
| 2026-05-04 20:18 | 43.25656 | 4.91819 | 9085 ft | 316 kts | 32° |
| 2026-05-04 20:19 | 43.27643 | 4.92907 | 8714 ft | 305 kts | 17° |
| 2026-05-04 20:19 | 43.29688 | 4.93604 | 8140 ft | 302 kts | 13° |
| 2026-05-04 20:19 | 43.31749 | 4.94224 | 7507 ft | 301 kts | 13° |
| 2026-05-04 20:19 | 43.33775 | 4.94816 | 7081 ft | 298 kts | 12° |
| 2026-05-04 20:20 | 43.35792 | 4.95401 | 6953 ft | 299 kts | 13° |
| 2026-05-04 20:20 | 43.37843 | 4.95992 | 6958 ft | 300 kts | 12° |
| 2026-05-04 20:20 | 43.39892 | 4.96585 | 6982 ft | 300 kts | 13° |
| 2026-05-04 20:20 | 43.41925 | 4.97170 | 6969 ft | 299 kts | 13° |
| 2026-05-04 20:21 | 43.43982 | 4.97561 | 6863 ft | 297 kts | 357° |
| 2026-05-04 20:21 | 43.45978 | 4.96873 | 6556 ft | 294 kts | 331° |
| 2026-05-04 20:21 | 43.49408 | 4.93914 | 6040 ft | 290 kts | 323° |
| 2026-05-04 20:22 | 43.51058 | 4.92350 | 5741 ft | 291 kts | 323° |
| 2026-05-04 20:22 | 43.52723 | 4.90747 | 5460 ft | 291 kts | 322° |
| 2026-05-04 20:22 | 43.54267 | 4.88957 | 5167 ft | 290 kts | 314° |
| 2026-05-04 20:22 | 43.55718 | 4.87020 | 4988 ft | 288 kts | 313° |
| 2026-05-04 20:23 | 43.57147 | 4.85054 | 4985 ft | 292 kts | 313° |
| 2026-05-04 20:23 | 43.58589 | 4.83050 | 4983 ft | 294 kts | 313° |
| 2026-05-04 20:23 | 43.60037 | 4.81037 | 4984 ft | 294 kts | 313° |
| 2026-05-04 20:23 | 43.61472 | 4.79045 | 4982 ft | 294 kts | 313° |
| 2026-05-04 20:24 | 43.62904 | 4.77058 | 4974 ft | 290 kts | 313° |
| 2026-05-04 20:24 | 43.64296 | 4.75133 | 4944 ft | 271 kts | 313° |
| 2026-05-04 20:24 | 43.65575 | 4.73369 | 4954 ft | 252 kts | 313° |
| 2026-05-04 20:24 | 43.66780 | 4.71705 | 4978 ft | 240 kts | 313° |
| 2026-05-04 20:25 | 43.67939 | 4.70115 | 4940 ft | 228 kts | 313° |
| 2026-05-04 20:25 | 43.69169 | 4.68834 | 4954 ft | 220 kts | 342° |
| 2026-05-04 20:25 | 43.70643 | 4.68647 | 4912 ft | 209 kts | 22° |
| 2026-05-04 20:25 | 43.71845 | 4.69615 | 4680 ft | 193 kts | 62° |
| 2026-05-04 20:26 | 43.72290 | 4.71214 | 4445 ft | 176 kts | 99° |
| 2026-05-04 20:26 | 43.72105 | 4.72841 | 4243 ft | 169 kts | 113° |
| 2026-05-04 20:26 | 43.71681 | 4.74358 | 4100 ft | 165 kts | 118° |
| 2026-05-04 20:26 | 43.71148 | 4.75726 | 3989 ft | 159 kts | 125° |
| 2026-05-04 20:27 | 43.70532 | 4.76983 | 3991 ft | 160 kts | 127° |
| 2026-05-04 20:27 | 43.69888 | 4.78248 | 3985 ft | 160 kts | 127° |
| 2026-05-04 20:27 | 43.69267 | 4.79529 | 3986 ft | 160 kts | 126° |
| 2026-05-04 20:27 | 43.68654 | 4.80820 | 3980 ft | 160 kts | 126° |
| 2026-05-04 20:28 | 43.68052 | 4.82114 | 3983 ft | 161 kts | 126° |
| 2026-05-04 20:28 | 43.67450 | 4.83425 | 3977 ft | 160 kts | 126° |
| 2026-05-04 20:28 | 43.66853 | 4.84714 | 3974 ft | 161 kts | 126° |
| 2026-05-04 20:28 | 43.66253 | 4.86024 | 3974 ft | 161 kts | 126° |
| 2026-05-04 20:29 | 43.65649 | 4.87338 | 3976 ft | 160 kts | 126° |
| 2026-05-04 20:29 | 43.65058 | 4.88617 | 3994 ft | 159 kts | 125° |
| 2026-05-04 20:29 | 43.64534 | 4.89998 | 3985 ft | 161 kts | 120° |
| 2026-05-04 20:29 | 43.64063 | 4.91385 | 3978 ft | 161 kts | 121° |
| 2026-05-04 20:30 | 43.63486 | 4.92718 | 3973 ft | 160 kts | 128° |
| 2026-05-04 20:30 | 43.62814 | 4.93927 | 3974 ft | 159 kts | 131° |
| 2026-05-04 20:30 | 43.62100 | 4.95101 | 3972 ft | 158 kts | 133° |
| 2026-05-04 20:30 | 43.61380 | 4.96233 | 3972 ft | 159 kts | 133° |
| 2026-05-04 20:31 | 43.60640 | 4.97359 | 3973 ft | 158 kts | 134° |
| 2026-05-04 20:31 | 43.59888 | 4.98473 | 3967 ft | 154 kts | 135° |
| 2026-05-04 20:31 | 43.59193 | 4.99485 | 3955 ft | 138 kts | 135° |
| 2026-05-04 20:31 | 43.58526 | 5.00440 | 3854 ft | 138 kts | 135° |
| 2026-05-04 20:32 | 43.57865 | 5.01378 | 3669 ft | 137 kts | 135° |
| 2026-05-04 20:32 | 43.57201 | 5.02317 | 3490 ft | 137 kts | 134° |
| 2026-05-04 20:32 | 43.56533 | 5.03262 | 3313 ft | 137 kts | 135° |
| 2026-05-04 20:32 | 43.55865 | 5.04203 | 3128 ft | 136 kts | 135° |
| 2026-05-04 20:33 | 43.55209 | 5.05126 | 2951 ft | 136 kts | 134° |
| 2026-05-04 20:33 | 43.54549 | 5.06058 | 2776 ft | 135 kts | 133° |
| 2026-05-04 20:33 | 43.53891 | 5.06987 | 2588 ft | 135 kts | 132° |
| 2026-05-04 20:33 | 43.53242 | 5.07905 | 2413 ft | 134 kts | 131° |
| 2026-05-04 20:34 | 43.52589 | 5.08829 | 2233 ft | 134 kts | 131° |
| 2026-05-04 20:34 | 43.51952 | 5.09734 | 2053 ft | 133 kts | 131° |
| 2026-05-04 20:34 | 43.51304 | 5.10651 | 1876 ft | 132 kts | 130° |
| 2026-05-04 20:34 | 43.50667 | 5.11554 | 1696 ft | 132 kts | 129° |
| 2026-05-04 20:35 | 43.50024 | 5.12468 | 1520 ft | 131 kts | 128° |
| 2026-05-04 20:35 | 43.49388 | 5.13370 | 1348 ft | 131 kts | 128° |
| 2026-05-04 20:35 | 43.48757 | 5.14267 | 1176 ft | 130 kts | 128° |
| 2026-05-04 20:35 | 43.48127 | 5.15162 | 1001 ft | 130 kts | 129° |
| 2026-05-04 20:36 | 43.47500 | 5.16054 | 830 ft | 130 kts | 128° |
| 2026-05-04 20:36 | 43.46874 | 5.16948 | 654 ft | 130 kts | 129° |
| 2026-05-04 20:36 | 43.46253 | 5.17851 | 481 ft | 129 kts | 129° |
| 2026-05-04 20:36 | 43.45619 | 5.18733 | 293 ft | 129 kts | 129° |
| 2026-05-04 20:37 | 43.45003 | 5.19600 | 81 ft | 127 kts | 129° |
| 2026-05-04 20:37 | 43.44400 | 5.20478 | 19 ft | 118 kts | 132° |
| 2026-05-04 20:37 | 43.43937 | 5.21131 | 28 ft | 70 kts | 135° |
| 2026-05-04 20:37 | 43.43653 | 5.21532 | 37 ft | 54 kts | 133° |
| 2026-05-04 20:38 | 43.43446 | 5.21829 | 48 ft | 31 kts | 133° |
| 2026-05-04 20:38 | 43.43337 | 5.22023 | 54 ft | 20 kts | 107° |
| 2026-05-04 20:38 | 43.43337 | 5.22165 | 56 ft | 0 kts | 82° |
| 2026-05-04 20:38 | 43.43337 | 5.22167 | 56 ft | 0 kts | 82° |
| 2026-05-04 20:39 | 43.43338 | 5.22180 | 57 ft | 1 kts | 82° |
| 2026-05-04 20:39 | 43.43341 | 5.22204 | 57 ft | 3 kts | 76° |
| 2026-05-04 20:39 | 43.43353 | 5.22240 | 57 ft | 5 kts | 55° |
| 2026-05-04 20:39 | 43.43382 | 5.22269 | 57 ft | 0 kts | 21° |
| 2026-05-04 20:40 | 43.43383 | 5.22269 | 57 ft | 0 kts | 21° |
| 2026-05-04 20:40 | 43.43405 | 5.22275 | 56 ft | 7 kts | 5° |
| 2026-05-04 20:40 | 43.43467 | 5.22246 | 54 ft | 10 kts | 331° |
| 2026-05-04 20:41 | 43.43539 | 5.22189 | 49 ft | 14 kts | 328° |
| 2026-05-04 20:41 | 43.43634 | 5.22111 | 44 ft | 13 kts | 330° |
| 2026-05-04 20:41 | 43.43724 | 5.22041 | 40 ft | 16 kts | 330° |
| 2026-05-04 20:41 | 43.43797 | 5.21961 | 37 ft | 13 kts | 314° |
| 2026-05-04 20:42 | 43.43837 | 5.21903 | 35 ft | 5 kts | 313° |
| 2026-05-04 20:42 | 43.43856 | 5.21876 | 34 ft | 2 kts | 315° |
| 2026-05-04 20:42 | 43.43870 | 5.21862 | 33 ft | 1 kts | 332° |
| 2026-05-04 20:42 | 43.43881 | 5.21859 | 33 ft | 0 kts | 359° |
| 2026-05-04 20:43 | 43.43883 | 5.21860 | 33 ft | 0 kts | 11° |
| 2026-05-04 20:43 | 43.43898 | 5.21866 | 33 ft | 4 kts | 26° |
| 2026-05-04 20:44 | 43.43935 | 5.21904 | 33 ft | 8 kts | 42° |
| 2026-05-04 20:44 | 43.43979 | 5.21960 | 33 ft | 6 kts | 41° |
| 2026-05-04 20:44 | 43.44030 | 5.21966 | 33 ft | 10 kts | 335° |
| 2026-05-04 20:44 | 43.44067 | 5.21927 | 32 ft | 4 kts | 316° |
| 2026-05-04 20:45 | 43.44092 | 5.21898 | 32 ft | 5 kts | 335° |
| 2026-05-04 20:45 | 43.44114 | 5.21904 | 32 ft | 0 kts | 34° |
| 2026-05-04 20:45 | 43.44116 | 5.21907 | 32 ft | 1 kts | 44° |
| 2026-05-04 20:45 | 43.44131 | 5.21928 | 32 ft | 4 kts | 45° |
| 2026-05-04 20:46 | 43.44148 | 5.21950 | 33 ft | 0 kts | 44° |
| 2026-05-04 20:46 | 43.44149 | 5.21952 | 33 ft | 0 kts | 44° |